createdAt,value
2022-08-27T00:00:44.893Z,99258.84
2022-08-27T00:03:12.411Z,99256.59
2022-08-27T00:05:40.042Z,99251.41
2022-08-27T00:08:07.767Z,99255.56
2022-08-27T00:10:35.244Z,99253.19
2022-08-27T00:13:02.657Z,99253.50
2022-08-27T00:15:30.004Z,99253.22
2022-08-27T00:17:57.470Z,99259.72
2022-08-27T00:20:26.030Z,99259.16
2022-08-27T00:22:53.422Z,99265.09
2022-08-27T00:25:20.982Z,99258.28
2022-08-27T00:27:48.204Z,99258.03
2022-08-27T00:30:16.654Z,99259.97
2022-08-27T00:32:44.351Z,99255.00
2022-08-27T00:35:11.975Z,99267.44
2022-08-27T00:37:39.173Z,99265.41
2022-08-27T00:40:13.504Z,99261.75
2022-08-27T00:42:42.501Z,99259.34
2022-08-27T00:45:10.213Z,99266.03
2022-08-27T00:47:39.772Z,99258.88
2022-08-27T00:50:08.799Z,99260.09
2022-08-27T00:52:45.325Z,99260.72
2022-08-27T00:55:15.060Z,99261.53
2022-08-27T00:57:42.802Z,99257.31
2022-08-27T01:00:12.050Z,99270.41
2022-08-27T01:02:39.329Z,99261.09
2022-08-27T01:05:15.429Z,99261.69
2022-08-27T01:07:43.497Z,99270.19
2022-08-27T01:10:12.865Z,99263.88
2022-08-27T01:12:40.078Z,99267.31
2022-08-27T01:15:08.719Z,99271.84
2022-08-27T01:17:39.045Z,99274.12
2022-08-27T01:20:09.378Z,99281.66
2022-08-27T01:22:50.358Z,99280.94
2022-08-27T01:25:18.007Z,99277.28
2022-08-27T01:27:45.450Z,99278.94
2022-08-27T01:30:14.793Z,99276.19
2022-08-27T01:35:27.553Z,99282.25
2022-08-27T01:37:56.972Z,99284.91
2022-08-27T01:40:24.639Z,99289.44
2022-08-27T01:42:54.337Z,99280.88
2022-08-27T01:45:26.819Z,99288.16
2022-08-27T01:47:54.278Z,99291.16
2022-08-27T01:50:23.532Z,99281.91
2022-08-27T01:52:51.095Z,99287.72
2022-08-27T01:55:19.562Z,99290.06
2022-08-27T01:57:47.117Z,99290.34
2022-08-27T02:00:16.431Z,99291.44
2022-08-27T02:02:44.568Z,99293.16
2022-08-27T02:05:12.200Z,99286.78
2022-08-27T02:07:39.640Z,99294.22
2022-08-27T02:10:08.452Z,99294.09
2022-08-27T02:12:35.655Z,99288.81
2022-08-27T02:15:02.944Z,99282.97
2022-08-27T02:17:30.457Z,99286.22
2022-08-27T02:19:57.675Z,99292.03
2022-08-27T02:22:24.899Z,99288.41
2022-08-27T02:24:52.427Z,99284.81
2022-08-27T02:27:19.835Z,99277.69
2022-08-27T02:29:49.760Z,99283.28
2022-08-27T02:32:22.439Z,99283.84
2022-08-27T02:34:58.962Z,99276.87
2022-08-27T02:37:26.584Z,99273.84
2022-08-27T02:39:53.851Z,99269.75
2022-08-27T02:42:21.181Z,99276.37
2022-08-27T02:44:48.674Z,99274.41
2022-08-27T02:47:16.861Z,99278.28
2022-08-27T02:49:44.492Z,99280.56
2022-08-27T02:52:12.719Z,99273.00
2022-08-27T02:54:40.624Z,99281.06
2022-08-27T02:57:07.881Z,99282.59
2022-08-27T02:59:35.499Z,99287.25
2022-08-27T03:02:02.785Z,99279.16
2022-08-27T03:04:30.120Z,99280.28
2022-08-27T03:06:57.876Z,99268.56
2022-08-27T03:09:25.168Z,99272.16
2022-08-27T03:11:53.631Z,99272.16
2022-08-27T03:14:21.158Z,99283.16
2022-08-27T03:16:48.422Z,99280.69
2022-08-27T03:19:19.872Z,99279.44
2022-08-27T03:21:54.821Z,99288.44
2022-08-27T03:24:22.291Z,99285.00
2022-08-27T03:26:53.824Z,99279.41
2022-08-27T03:29:21.616Z,99278.41
2022-08-27T03:31:48.906Z,99280.25
2022-08-27T03:34:19.790Z,99280.25
2022-08-27T03:36:48.979Z,99282.34
2022-08-27T03:39:16.168Z,99275.25
2022-08-27T03:41:55.459Z,99286.22
2022-08-27T03:44:24.011Z,99285.19
2022-08-27T03:46:51.690Z,99282.41
2022-08-27T03:49:20.442Z,99287.25
2022-08-27T03:51:52.401Z,99284.94
2022-08-27T03:54:19.612Z,99282.97
2022-08-27T03:56:47.092Z,99287.44
2022-08-27T03:59:15.828Z,99286.53
2022-08-27T04:01:44.379Z,99289.81
2022-08-27T04:04:13.142Z,99290.06
2022-08-27T04:06:40.762Z,99296.66
2022-08-27T04:09:07.996Z,99285.75
2022-08-27T04:11:35.473Z,99292.87
2022-08-27T04:14:07.595Z,99284.06
2022-08-27T04:16:52.584Z,99291.03
2022-08-27T04:19:22.869Z,99290.00
2022-08-27T04:21:53.019Z,99288.78
2022-08-27T04:24:20.228Z,99290.78
2022-08-27T04:26:47.902Z,99289.59
2022-08-27T04:29:15.385Z,99291.22
2022-08-27T04:31:43.291Z,99298.81
2022-08-27T04:34:13.178Z,99293.53
2022-08-27T04:36:40.610Z,99297.97
2022-08-27T04:39:07.821Z,99294.53
2022-08-27T04:41:35.104Z,99288.66
2022-08-27T04:44:03.731Z,99291.38
2022-08-27T04:46:32.359Z,99287.75
2022-08-27T04:49:00.714Z,99296.66
2022-08-27T04:51:29.078Z,99287.47
2022-08-27T04:53:56.714Z,99285.69
2022-08-27T04:56:27.403Z,99292.84
2022-08-27T04:58:54.631Z,99289.53
2022-08-27T05:01:23.006Z,99299.97
2022-08-27T05:03:50.534Z,99289.25
2022-08-27T05:06:17.836Z,99294.88
2022-08-27T05:08:45.212Z,99294.72
2022-08-27T05:11:15.156Z,99298.88
2022-08-27T05:13:42.877Z,99304.03
2022-08-27T05:16:11.567Z,99300.44
2022-08-27T05:18:42.207Z,99296.41
2022-08-27T05:21:19.389Z,99294.72
2022-08-27T05:23:47.683Z,99290.84
2022-08-27T05:26:15.162Z,99301.41
2022-08-27T05:28:42.394Z,99300.84
2022-08-27T05:31:10.597Z,99296.09
2022-08-27T05:33:41.255Z,99289.53
2022-08-27T05:36:08.905Z,99286.28
2022-08-27T05:38:36.409Z,99296.22
2022-08-27T05:41:09.175Z,99294.22
2022-08-27T05:43:37.136Z,99299.78
2022-08-27T05:46:05.826Z,99295.19
2022-08-27T05:48:33.863Z,99294.59
2022-08-27T05:51:07.402Z,99292.84
2022-08-27T05:53:34.633Z,99293.78
2022-08-27T05:56:02.109Z,99296.91
2022-08-27T05:58:49.401Z,99292.41
2022-08-27T06:01:17.517Z,99291.44
2022-08-27T06:03:46.512Z,99296.81
2022-08-27T06:06:14.456Z,99295.78
2022-08-27T06:08:41.679Z,99298.75
2022-08-27T06:11:10.259Z,99293.97
2022-08-27T06:13:37.641Z,99295.56
2022-08-27T06:16:07.258Z,99291.63
2022-08-27T06:18:35.199Z,99293.84
2022-08-27T06:21:02.383Z,99297.13
2022-08-27T06:23:29.603Z,99296.47
2022-08-27T06:25:57.332Z,99298.78
2022-08-27T06:28:29.607Z,99306.22
2022-08-27T06:31:04.215Z,99313.94
2022-08-27T06:33:31.443Z,99310.00
2022-08-27T06:36:00.246Z,99317.50
2022-08-27T06:38:27.642Z,99315.84
2022-08-27T06:40:55.887Z,99322.78
2022-08-27T06:43:25.161Z,99323.72
2022-08-27T06:45:52.876Z,99317.06
2022-08-27T06:48:21.386Z,99323.78
2022-08-27T06:50:48.879Z,99317.22
2022-08-27T06:53:16.423Z,99320.56
2022-08-27T06:55:44.714Z,99323.72
2022-08-27T06:58:12.758Z,99319.88
2022-08-27T07:00:40.210Z,99320.97
2022-08-27T07:03:07.400Z,99329.75
2022-08-27T07:05:35.642Z,99326.81
2022-08-27T07:08:03.359Z,99328.38
2022-08-27T07:10:31.949Z,99326.94
2022-08-27T07:12:59.921Z,99332.38
2022-08-27T07:15:27.266Z,99331.31
2022-08-27T07:17:57.113Z,99332.69
2022-08-27T07:20:25.405Z,99336.09
2022-08-27T07:22:54.347Z,99343.56
2022-08-27T07:25:21.621Z,99343.44
2022-08-27T07:27:49.396Z,99345.13
2022-08-27T07:30:17.170Z,99349.88
2022-08-27T07:32:44.975Z,99343.50
2022-08-27T07:35:12.723Z,99345.81
2022-08-27T07:37:40.336Z,99352.06
2022-08-27T07:40:12.332Z,99353.78
2022-08-27T07:43:00.189Z,99349.09
2022-08-27T07:45:27.720Z,99351.88
2022-08-27T07:47:55.191Z,99354.38
2022-08-27T07:50:23.578Z,99352.94
2022-08-27T07:52:51.357Z,99351.22
2022-08-27T07:55:18.839Z,99350.50
2022-08-27T07:57:48.043Z,99339.88
2022-08-27T08:00:15.542Z,99344.63
2022-08-27T08:02:44.978Z,99341.09
2022-08-27T08:05:12.739Z,99342.84
2022-08-27T08:07:39.925Z,99342.25
2022-08-27T08:10:07.617Z,99344.25
2022-08-27T08:12:36.147Z,99348.41
2022-08-27T08:15:04.019Z,99345.97
2022-08-27T08:17:32.517Z,99344.44
2022-08-27T08:20:18.463Z,99351.50
2022-08-27T08:22:47.766Z,99352.31
2022-08-27T08:25:15.528Z,99353.59
2022-08-27T08:27:42.709Z,99352.94
2022-08-27T08:30:10.816Z,99346.06
2022-08-27T08:32:38.431Z,99350.84
2022-08-27T08:35:06.334Z,99352.94
2022-08-27T08:37:33.650Z,99348.62
2022-08-27T08:40:01.163Z,99352.94
2022-08-27T08:42:30.159Z,99357.12
2022-08-27T08:44:58.046Z,99355.38
2022-08-27T08:47:27.205Z,99349.31
2022-08-27T08:49:57.343Z,99350.16
2022-08-27T08:52:31.571Z,99353.28
2022-08-27T08:55:01.610Z,99351.22
2022-08-27T08:57:31.097Z,99348.41
2022-08-27T09:00:02.518Z,99348.22
2022-08-27T09:02:30.149Z,99357.44
2022-08-27T09:04:57.499Z,99351.09
2022-08-27T09:07:30.573Z,99354.03
2022-08-27T09:10:05.875Z,99348.69
2022-08-27T09:12:33.526Z,99351.16
2022-08-27T09:15:02.146Z,99343.72
2022-08-27T09:17:32.622Z,99349.38
2022-08-27T09:19:59.845Z,99339.81
2022-08-27T09:22:48.861Z,99340.66
2022-08-27T09:25:22.157Z,99333.00
2022-08-27T09:27:53.517Z,99334.16
2022-08-27T09:30:28.590Z,99338.69
2022-08-27T09:33:01.477Z,99337.69
2022-08-27T09:35:29.434Z,99333.84
2022-08-27T09:37:57.806Z,99332.13
2022-08-27T09:40:29.733Z,99326.44
2022-08-27T09:42:57.549Z,99320.84
2022-08-27T09:45:26.798Z,99336.69
2022-08-27T09:47:53.951Z,99323.97
2022-08-27T09:50:22.328Z,99329.31
2022-08-27T09:52:55.182Z,99329.06
2022-08-27T09:55:34.668Z,99328.91
2022-08-27T09:58:03.649Z,99329.31
2022-08-27T10:00:36.396Z,99323.34
2022-08-27T10:03:05.192Z,99322.25
2022-08-27T10:05:36.493Z,99320.22
2022-08-27T10:08:19.822Z,99323.88
2022-08-27T10:10:58.619Z,99318.84
2022-08-27T10:13:34.306Z,99320.84
2022-08-27T10:16:29.528Z,99321.56
2022-08-27T10:19:03.021Z,99318.84
2022-08-27T10:21:41.928Z,99317.00
2022-08-27T10:24:29.150Z,99321.25
2022-08-27T10:27:16.125Z,99327.59
2022-08-27T10:29:46.547Z,99325.78
2022-08-27T10:32:34.118Z,99324.38
2022-08-27T10:35:05.000Z,99316.75
2022-08-27T10:37:36.801Z,99322.16
2022-08-27T10:40:16.943Z,99319.59
2022-08-27T10:42:57.617Z,99319.62
2022-08-27T10:45:34.852Z,99318.84
2022-08-27T10:48:06.990Z,99317.66
2022-08-27T10:50:34.470Z,99312.84
2022-08-27T10:53:12.116Z,99310.47
2022-08-27T10:55:43.456Z,99310.72
2022-08-27T10:58:29.150Z,99311.38
2022-08-27T11:00:58.725Z,99307.97
2022-08-27T11:03:25.992Z,99306.16
2022-08-27T11:06:03.883Z,99309.09
2022-08-27T11:08:45.027Z,99302.72
2022-08-27T11:11:51.742Z,99306.78
2022-08-27T11:14:01.192Z,99301.22
2022-08-27T11:16:45.638Z,99303.47
2022-08-27T11:19:15.266Z,99296.75
2022-08-27T11:21:42.720Z,99290.00
2022-08-27T11:24:12.890Z,99289.69
2022-08-27T11:26:40.167Z,99294.00
2022-08-27T11:29:22.239Z,99296.16
2022-08-27T11:32:01.434Z,99289.63
2022-08-27T11:34:41.146Z,99295.47
2022-08-27T11:37:27.919Z,99286.31
2022-08-27T11:40:02.598Z,99283.03
2022-08-27T11:42:43.951Z,99284.09
2022-08-27T11:45:20.626Z,99280.88
2022-08-27T11:47:51.644Z,99282.72
2022-08-27T11:50:19.962Z,99285.00
2022-08-27T11:52:54.865Z,99271.75
2022-08-27T11:55:22.267Z,99277.03
2022-08-27T11:57:50.532Z,99264.22
2022-08-27T12:00:21.032Z,99261.50
2022-08-27T12:03:02.333Z,99266.75
2022-08-27T12:05:52.984Z,99262.19
2022-08-27T12:08:21.831Z,99260.19
2022-08-27T12:10:52.444Z,99254.81
2022-08-27T12:13:36.097Z,99251.63
2022-08-27T12:16:12.765Z,99252.50
2022-08-27T12:18:51.619Z,99248.34
2022-08-27T12:21:28.450Z,99249.72
2022-08-27T12:24:07.776Z,99242.88
2022-08-27T12:26:36.061Z,99240.94
2022-08-27T12:29:18.289Z,99235.84
2022-08-27T12:31:48.333Z,99242.00
2022-08-27T12:34:16.006Z,99233.22
2022-08-27T12:36:50.198Z,99234.47
2022-08-27T12:39:18.730Z,99238.50
2022-08-27T12:41:46.711Z,99226.97
2022-08-27T12:44:15.987Z,99223.06
2022-08-27T12:46:53.393Z,99217.19
2022-08-27T12:49:38.949Z,99215.87
2022-08-27T12:52:14.079Z,99219.81
2022-08-27T12:55:09.032Z,99211.25
2022-08-27T12:57:45.288Z,99218.94
2022-08-27T13:00:19.141Z,99210.41
2022-08-27T13:03:06.981Z,99208.56
2022-08-27T13:05:45.347Z,99211.00
2022-08-27T13:08:23.276Z,99209.97
2022-08-27T13:10:51.058Z,99206.25
2022-08-27T13:13:22.469Z,99210.34
2022-08-27T13:15:56.957Z,99204.41
2022-08-27T13:18:24.605Z,99198.56
2022-08-27T13:21:23.358Z,99213.31
2022-08-27T13:23:54.204Z,99211.31
2022-08-27T13:26:22.458Z,99209.41
2022-08-27T13:28:49.768Z,99203.78
2022-08-27T13:31:17.272Z,99214.16
2022-08-27T13:33:44.508Z,99209.72
2022-08-27T13:36:12.377Z,99204.62
2022-08-27T13:38:49.333Z,99210.66
2022-08-27T13:41:33.826Z,99215.00
2022-08-27T13:44:27.703Z,99209.72
2022-08-27T13:47:01.207Z,99211.00
2022-08-27T13:49:32.373Z,99202.78
2022-08-27T13:52:01.779Z,99205.69
2022-08-27T13:54:29.741Z,99211.03
2022-08-27T13:56:58.613Z,99206.19
2022-08-27T13:59:26.774Z,99194.69
2022-08-27T14:01:59.228Z,99204.53
2022-08-27T14:04:34.201Z,99211.09
2022-08-27T14:07:06.537Z,99205.97
2022-08-27T14:09:34.019Z,99202.69
2022-08-27T14:12:02.132Z,99194.97
2022-08-27T14:14:30.469Z,99204.22
2022-08-27T14:16:59.264Z,99201.00
2022-08-27T14:19:28.022Z,99203.00
2022-08-27T14:21:56.015Z,99200.66
2022-08-27T14:24:24.043Z,99201.06
2022-08-27T14:26:52.066Z,99206.16
2022-08-27T14:29:19.619Z,99200.75
2022-08-27T14:31:47.439Z,99195.56
2022-08-27T14:34:14.811Z,99201.25
2022-08-27T14:36:42.134Z,99203.16
2022-08-27T14:39:09.884Z,99201.97
2022-08-27T14:41:37.687Z,99188.53
2022-08-27T14:44:06.195Z,99186.72
2022-08-27T14:46:35.985Z,99188.38
2022-08-27T14:49:11.503Z,99189.97
2022-08-27T14:51:39.362Z,99186.63
2022-08-27T14:54:06.768Z,99192.97
2022-08-27T14:56:34.008Z,99195.16
2022-08-27T14:59:01.497Z,99203.09
2022-08-27T15:01:29.462Z,99198.06
2022-08-27T15:03:56.787Z,99201.06
2022-08-27T15:06:25.178Z,99191.75
2022-08-27T15:08:53.666Z,99199.75
2022-08-27T15:11:24.957Z,99198.00
2022-08-27T15:13:52.722Z,99206.75
2022-08-27T15:16:27.286Z,99207.81
2022-08-27T15:19:00.965Z,99209.47
2022-08-27T15:21:28.934Z,99204.72
2022-08-27T15:24:04.002Z,99208.50
2022-08-27T15:26:31.674Z,99205.69
2022-08-27T15:29:02.787Z,99214.38
2022-08-27T15:31:32.999Z,99209.69
2022-08-27T15:34:00.510Z,99214.38
2022-08-27T15:36:27.825Z,99213.00
2022-08-27T15:38:55.276Z,99214.97
2022-08-27T15:41:26.126Z,99215.56
2022-08-27T15:43:55.858Z,99211.03
2022-08-27T15:46:23.507Z,99216.09
2022-08-27T15:48:50.801Z,99208.47
2022-08-27T15:51:18.278Z,99218.41
2022-08-27T15:53:45.775Z,99220.53
2022-08-27T15:56:12.969Z,99212.47
2022-08-27T15:58:41.248Z,99214.72
2022-08-27T16:01:10.205Z,99211.91
2022-08-27T16:03:37.699Z,99208.78
2022-08-27T16:06:05.380Z,99210.66
2022-08-27T16:08:36.636Z,99207.97
2022-08-27T16:11:06.855Z,99205.00
2022-08-27T16:13:34.415Z,99206.75
2022-08-27T16:16:24.285Z,99206.47
2022-08-27T16:18:51.783Z,99210.72
2022-08-27T16:21:19.278Z,99208.75
2022-08-27T16:23:46.661Z,99212.12
2022-08-27T16:26:14.143Z,99214.81
2022-08-27T16:28:41.292Z,99217.19
2022-08-27T16:31:12.157Z,99215.50
2022-08-27T16:33:40.980Z,99212.38
2022-08-27T16:36:08.211Z,99210.97
2022-08-27T16:38:36.107Z,99219.47
2022-08-27T16:41:03.691Z,99209.56
2022-08-27T16:43:30.859Z,99211.44
2022-08-27T16:45:59.579Z,99218.47
2022-08-27T16:48:46.261Z,99213.97
2022-08-27T16:51:17.711Z,99221.53
2022-08-27T16:53:47.454Z,99211.62
2022-08-27T16:56:16.989Z,99211.00
2022-08-27T16:58:49.740Z,99214.06
2022-08-27T17:01:18.192Z,99213.97
2022-08-27T17:04:07.662Z,99216.75
2022-08-27T17:06:34.580Z,99218.00
2022-08-27T17:09:05.323Z,99224.84
2022-08-27T17:11:32.902Z,99225.22
2022-08-27T17:14:02.329Z,99226.66
2022-08-27T17:16:30.320Z,99230.56
2022-08-27T17:18:58.438Z,99234.75
2022-08-27T17:21:29.686Z,99245.22
2022-08-27T17:23:59.430Z,99243.78
2022-08-27T17:26:27.187Z,99251.34
2022-08-27T17:28:54.480Z,99265.38
2022-08-27T17:31:27.900Z,99269.69
2022-08-27T17:33:58.137Z,99274.31
2022-08-27T17:36:27.128Z,99281.62
2022-08-27T17:38:56.025Z,99279.94
2022-08-27T17:41:23.522Z,99289.78
2022-08-27T17:43:50.674Z,99277.25
2022-08-27T17:46:17.943Z,99289.53
2022-08-27T17:48:45.379Z,99288.69
2022-08-27T17:51:12.669Z,99294.91
2022-08-27T17:53:48.009Z,99300.69
2022-08-27T17:56:16.209Z,99296.66
2022-08-27T17:58:44.837Z,99302.88
2022-08-27T18:01:12.093Z,99297.63
2022-08-27T18:03:44.440Z,99301.50
2022-08-27T18:06:15.711Z,99304.91
2022-08-27T18:08:43.176Z,99303.19
2022-08-27T18:11:11.150Z,99310.94
2022-08-27T18:13:38.491Z,99305.31
2022-08-27T18:16:06.508Z,99297.19
2022-08-27T18:18:35.168Z,99291.38
2022-08-27T18:21:02.381Z,99302.28
2022-08-27T18:23:30.308Z,99305.69
2022-08-27T18:25:57.876Z,99304.94
2022-08-27T18:28:25.357Z,99310.28
2022-08-27T18:30:52.836Z,99307.72
2022-08-27T18:33:20.037Z,99314.84
2022-08-27T18:35:47.966Z,99310.97
2022-08-27T18:38:16.179Z,99316.75
2022-08-27T18:40:48.182Z,99318.94
2022-08-27T18:43:16.428Z,99322.31
2022-08-27T18:45:45.031Z,99324.47
2022-08-27T18:48:19.381Z,99322.72
2022-08-27T18:50:50.236Z,99324.91
2022-08-27T18:53:20.125Z,99320.50
2022-08-27T18:55:57.648Z,99318.28
2022-08-27T18:58:25.703Z,99315.13
2022-08-27T19:00:55.051Z,99313.91
2022-08-27T19:03:28.253Z,99310.06
2022-08-27T19:05:56.449Z,99313.47
2022-08-27T19:08:25.444Z,99315.31
2022-08-27T19:10:53.222Z,99305.56
2022-08-27T19:13:21.450Z,99305.78
2022-08-27T19:15:54.024Z,99311.12
2022-08-27T19:18:25.899Z,99312.81
2022-08-27T19:20:56.229Z,99314.00
2022-08-27T19:23:24.529Z,99309.22
2022-08-27T19:25:52.378Z,99311.34
2022-08-27T19:28:25.263Z,99304.09
2022-08-27T19:30:53.683Z,99302.59
2022-08-27T19:33:23.722Z,99307.31
2022-08-27T19:35:57.237Z,99312.63
2022-08-27T19:38:25.373Z,99307.47
2022-08-27T19:40:56.923Z,99297.66
2022-08-27T19:43:24.952Z,99304.31
2022-08-27T19:45:54.900Z,99302.19
2022-08-27T19:48:22.576Z,99305.16
2022-08-27T19:50:52.343Z,99314.13
2022-08-27T19:53:20.075Z,99305.81
2022-08-27T19:55:48.427Z,99312.84
2022-08-27T19:58:17.702Z,99318.16
2022-08-27T20:00:45.951Z,99316.16
2022-08-27T20:03:15.854Z,99314.56
2022-08-27T20:05:43.972Z,99322.13
2022-08-27T20:08:12.878Z,99328.84
2022-08-27T20:10:41.159Z,99324.81
2022-08-27T20:13:08.574Z,99331.41
2022-08-27T20:15:39.896Z,99335.72
2022-08-27T20:18:10.334Z,99339.03
2022-08-27T20:20:37.635Z,99337.31
2022-08-27T20:23:05.315Z,99321.72
2022-08-27T20:25:33.477Z,99336.44
2022-08-27T20:28:16.269Z,99331.53
2022-08-27T20:30:49.037Z,99334.69
2022-08-27T20:33:16.832Z,99330.34
2022-08-27T20:35:44.091Z,99339.59
2022-08-27T20:38:11.719Z,99329.84
2022-08-27T20:40:39.135Z,99339.94
2022-08-27T20:43:06.328Z,99332.53
2022-08-27T20:45:37.674Z,99336.69
2022-08-27T20:48:05.471Z,99339.59
2022-08-27T20:50:32.870Z,99338.81
2022-08-27T20:53:00.832Z,99337.50
2022-08-27T20:55:28.278Z,99339.41
2022-08-27T20:58:14.105Z,99343.03
2022-08-27T21:00:42.259Z,99335.06
2022-08-27T21:03:10.041Z,99325.13
2022-08-27T21:05:37.498Z,99333.38
2022-08-27T21:08:05.487Z,99338.34
2022-08-27T21:10:32.833Z,99340.06
2022-08-27T21:13:03.371Z,99349.00
2022-08-27T21:15:32.392Z,99340.94
2022-08-27T21:17:59.570Z,99346.34
2022-08-27T21:20:26.777Z,99344.06
2022-08-27T21:22:57.715Z,99344.63
2022-08-27T21:25:25.389Z,99341.59
2022-08-27T21:27:52.774Z,99351.47
2022-08-27T21:30:21.421Z,99354.22
2022-08-27T21:32:48.865Z,99360.28
2022-08-27T21:35:16.365Z,99355.06
2022-08-27T21:37:43.811Z,99358.69
2022-08-27T21:40:11.207Z,99360.94
2022-08-27T21:42:38.401Z,99357.75
2022-08-27T21:45:06.093Z,99354.50
2022-08-27T21:47:33.265Z,99357.44
2022-08-27T21:50:00.723Z,99359.63
2022-08-27T21:52:29.573Z,99355.25
2022-08-27T21:54:57.043Z,99363.59
2022-08-27T21:57:24.225Z,99363.06
2022-08-27T21:59:51.612Z,99352.59
2022-08-27T22:05:08.584Z,99357.34
2022-08-27T22:07:35.756Z,99358.03
2022-08-27T22:10:02.982Z,99355.63
2022-08-27T22:12:30.418Z,99351.47
2022-08-27T22:14:57.555Z,99345.66
2022-08-27T22:17:24.744Z,99348.16
2022-08-27T22:19:52.167Z,99345.00
2022-08-27T22:22:19.347Z,99338.72
2022-08-27T22:24:46.525Z,99344.06
2022-08-27T22:27:13.951Z,99339.28
2022-08-27T22:29:41.092Z,99337.97
2022-08-27T22:32:08.257Z,99339.09
2022-08-27T22:34:35.790Z,99334.94
2022-08-27T22:37:03.326Z,99337.41
2022-08-27T22:39:30.743Z,99332.47
2022-08-27T22:41:58.449Z,99331.50
2022-08-27T22:44:29.318Z,99330.78
2022-08-27T22:46:56.753Z,99332.09
2022-08-27T22:49:24.346Z,99341.19
2022-08-27T22:51:51.520Z,99333.13
2022-08-27T22:54:18.896Z,99337.00
2022-08-27T22:56:46.338Z,99341.19
2022-08-27T22:59:13.622Z,99346.13
2022-08-27T23:01:40.804Z,99346.13
2022-08-27T23:04:08.434Z,99346.34
2022-08-27T23:06:35.688Z,99336.56
2022-08-27T23:09:04.210Z,99345.97
2022-08-27T23:11:31.894Z,99343.31
2022-08-27T23:13:59.516Z,99344.44
2022-08-27T23:16:27.229Z,99347.41
2022-08-27T23:18:54.733Z,99348.28
2022-08-27T23:21:21.953Z,99342.25
2022-08-27T23:23:49.099Z,99345.59
2022-08-27T23:26:35.019Z,99348.28
2022-08-27T23:29:04.468Z,99359.06
2022-08-27T23:31:31.967Z,99407.37
2022-08-27T23:33:59.867Z,99434.47
2022-08-27T23:36:29.305Z,99436.84
2022-08-27T23:38:58.367Z,99445.09
2022-08-27T23:41:26.433Z,99427.28
2022-08-27T23:43:54.294Z,99414.56
2022-08-27T23:46:21.761Z,99440.56
2022-08-27T23:48:48.936Z,99463.31
2022-08-27T23:51:16.075Z,99464.22
2022-08-27T23:53:43.505Z,99465.38
2022-08-27T23:56:11.029Z,99461.38
2022-08-27T23:58:38.252Z,99457.38
